createdAt,value
2019-03-31T00:01:51.051Z,28.30
2019-03-31T00:04:24.046Z,29.53
2019-03-31T00:06:56.199Z,28.83
2019-03-31T00:09:27.078Z,28.80
2019-03-31T00:11:59.467Z,30.67
2019-03-31T00:14:30.607Z,28.87
2019-03-31T00:17:03.252Z,30.63
2019-03-31T00:19:35.580Z,29.50
2019-03-31T00:22:07.025Z,28.80
2019-03-31T00:24:37.962Z,28.97
2019-03-31T00:27:08.653Z,29.60
2019-03-31T00:29:39.298Z,29.50
2019-03-31T00:32:10.266Z,28.37
2019-03-31T00:34:41.175Z,31.77
2019-03-31T00:37:12.348Z,27.03
2019-03-31T00:39:44.516Z,26.37
2019-03-31T00:42:16.162Z,28.50
2019-03-31T00:44:48.254Z,32.27
2019-03-31T00:47:20.582Z,32.10
2019-03-31T00:49:51.306Z,28.10
2019-03-31T00:52:23.421Z,30.00
2019-03-31T00:54:54.469Z,28.43
2019-03-31T00:57:25.144Z,29.50
2019-03-31T00:59:55.852Z,30.13
2019-03-31T01:02:28.716Z,28.97
2019-03-31T01:04:59.858Z,29.37
2019-03-31T01:07:32.638Z,28.93
2019-03-31T01:10:05.423Z,30.77
2019-03-31T01:12:37.117Z,29.57
2019-03-31T01:15:13.399Z,29.57
2019-03-31T01:17:44.585Z,31.73
2019-03-31T01:20:15.250Z,29.50
2019-03-31T01:22:46.184Z,28.10
2019-03-31T01:25:17.307Z,30.03
2019-03-31T01:27:48.125Z,31.13
2019-03-31T01:30:20.513Z,32.40
2019-03-31T01:32:51.805Z,30.60
2019-03-31T01:35:23.881Z,32.53
2019-03-31T01:37:54.564Z,29.80
2019-03-31T01:40:26.207Z,30.17
2019-03-31T01:42:56.893Z,30.73
2019-03-31T01:45:28.367Z,30.73
2019-03-31T01:47:59.538Z,31.13
2019-03-31T01:50:31.770Z,31.00
2019-03-31T01:53:02.433Z,32.20
2019-03-31T01:55:33.727Z,34.13
2019-03-31T01:58:05.705Z,33.57
2019-03-31T02:00:38.769Z,33.00
2019-03-31T02:03:09.599Z,31.97
2019-03-31T02:05:41.223Z,31.73
2019-03-31T02:08:12.721Z,32.63
2019-03-31T02:10:43.391Z,31.80
2019-03-31T02:13:14.351Z,33.30
2019-03-31T02:15:46.172Z,33.77
2019-03-31T02:18:17.266Z,33.40
2019-03-31T02:20:48.283Z,32.33
2019-03-31T02:23:19.149Z,34.77
2019-03-31T02:25:50.275Z,33.30
2019-03-31T02:28:20.925Z,33.00
2019-03-31T02:30:51.963Z,35.73
2019-03-31T02:33:22.681Z,33.10
2019-03-31T02:35:53.478Z,30.97
2019-03-31T02:38:24.213Z,35.87
2019-03-31T02:40:55.230Z,35.03
2019-03-31T02:43:26.381Z,33.70
2019-03-31T02:45:57.053Z,32.33
2019-03-31T02:48:27.742Z,35.33
2019-03-31T02:50:58.611Z,33.33
2019-03-31T02:53:29.756Z,33.50
2019-03-31T02:56:01.539Z,33.03
2019-03-31T02:58:33.063Z,32.00
2019-03-31T03:01:04.786Z,36.40
2019-03-31T03:03:39.369Z,32.40
2019-03-31T03:06:14.509Z,32.20
2019-03-31T03:08:49.089Z,33.17
2019-03-31T03:11:21.239Z,32.57
2019-03-31T03:13:54.631Z,29.50
2019-03-31T03:16:26.635Z,32.43
2019-03-31T03:18:59.473Z,32.20
2019-03-31T03:21:30.216Z,33.97
2019-03-31T03:24:00.961Z,32.87
2019-03-31T03:26:31.633Z,30.93
2019-03-31T03:29:02.326Z,35.13
2019-03-31T03:31:33.045Z,32.83
2019-03-31T03:34:03.966Z,34.27
2019-03-31T03:36:35.919Z,32.57
2019-03-31T03:39:10.127Z,32.53
2019-03-31T03:41:41.515Z,33.87
2019-03-31T03:44:12.943Z,30.80
2019-03-31T03:46:43.996Z,33.00
2019-03-31T03:49:14.951Z,33.20
2019-03-31T03:51:46.475Z,33.93
2019-03-31T03:54:17.751Z,31.33
2019-03-31T03:56:48.782Z,35.93
2019-03-31T03:59:19.729Z,32.33
2019-03-31T04:01:50.419Z,36.57
2019-03-31T04:04:21.157Z,36.20
2019-03-31T04:06:52.404Z,37.60
2019-03-31T04:09:23.177Z,33.87
2019-03-31T04:11:54.218Z,34.67
2019-03-31T04:14:25.108Z,36.50
2019-03-31T04:16:55.800Z,35.77
2019-03-31T04:19:27.411Z,36.50
2019-03-31T04:21:59.648Z,37.30
2019-03-31T04:24:35.793Z,35.63
2019-03-31T04:27:06.811Z,35.63
2019-03-31T04:29:38.219Z,34.77
2019-03-31T04:32:09.204Z,36.60
2019-03-31T04:34:40.070Z,35.47
2019-03-31T04:37:11.083Z,36.70
2019-03-31T04:39:41.930Z,35.23
2019-03-31T04:42:14.244Z,34.57
2019-03-31T04:44:44.943Z,38.87
2019-03-31T04:47:15.618Z,36.73
2019-03-31T04:49:46.363Z,37.93
2019-03-31T04:52:19.309Z,34.73
2019-03-31T04:54:50.297Z,32.87
2019-03-31T04:57:22.424Z,35.70
2019-03-31T04:59:53.757Z,35.43
2019-03-31T05:02:27.160Z,41.17
2019-03-31T05:04:57.964Z,36.03
2019-03-31T05:07:28.960Z,38.63
2019-03-31T05:09:59.739Z,34.83
2019-03-31T05:12:30.642Z,34.57
2019-03-31T05:15:01.388Z,36.70
2019-03-31T05:17:35.602Z,36.43
2019-03-31T05:20:07.315Z,36.50
2019-03-31T05:22:38.947Z,34.67
2019-03-31T05:25:09.861Z,38.37
2019-03-31T05:27:40.959Z,38.00
2019-03-31T05:30:12.470Z,37.10
2019-03-31T05:32:43.443Z,35.43
2019-03-31T05:35:14.690Z,34.97
2019-03-31T05:37:51.157Z,35.00
2019-03-31T05:40:18.810Z,34.60
2019-03-31T05:42:49.487Z,32.27
2019-03-31T05:45:20.268Z,38.10
2019-03-31T05:47:50.972Z,36.13
2019-03-31T05:50:21.829Z,36.33
2019-03-31T05:52:52.773Z,32.20
2019-03-31T05:55:23.688Z,36.30
2019-03-31T05:57:54.695Z,31.63
2019-03-31T06:00:36.145Z,31.23
2019-03-31T06:03:07.236Z,33.47
2019-03-31T06:05:38.711Z,34.17
2019-03-31T06:08:09.458Z,34.60
2019-03-31T06:10:40.343Z,32.53
2019-03-31T06:13:11.043Z,32.23
2019-03-31T06:15:41.898Z,31.67
2019-03-31T06:18:12.574Z,31.93
2019-03-31T06:20:44.200Z,32.93
2019-03-31T06:23:15.125Z,33.63
2019-03-31T06:25:46.087Z,34.33
2019-03-31T06:28:17.331Z,31.70
2019-03-31T06:30:47.985Z,36.20
2019-03-31T06:33:19.005Z,34.73
2019-03-31T06:35:49.657Z,32.10
2019-03-31T06:38:22.331Z,34.93
2019-03-31T06:40:55.392Z,34.57
2019-03-31T06:43:26.589Z,35.60
2019-03-31T06:45:57.588Z,31.50
2019-03-31T06:48:29.347Z,34.70
2019-03-31T06:51:00.685Z,32.77
2019-03-31T06:53:32.072Z,35.67
2019-03-31T06:56:03.186Z,33.17
2019-03-31T06:58:34.220Z,34.57
2019-03-31T07:01:04.908Z,49.63
2019-03-31T07:03:35.568Z,45.07
2019-03-31T07:06:06.800Z,34.67
2019-03-31T07:08:37.691Z,34.00
2019-03-31T07:11:08.606Z,31.87
2019-03-31T07:13:39.374Z,29.97
2019-03-31T07:16:10.039Z,32.60
2019-03-31T07:18:41.005Z,32.17
2019-03-31T07:21:11.737Z,31.73
2019-03-31T07:23:42.784Z,35.50
2019-03-31T07:26:14.131Z,32.70
2019-03-31T07:28:45.181Z,32.50
2019-03-31T07:31:15.884Z,33.57
2019-03-31T07:33:46.794Z,31.30
2019-03-31T07:36:17.453Z,31.20
2019-03-31T07:38:48.546Z,30.97
2019-03-31T07:41:19.326Z,30.93
2019-03-31T07:43:50.180Z,31.20
2019-03-31T07:46:20.865Z,29.93
2019-03-31T07:48:51.548Z,30.00
2019-03-31T07:51:23.653Z,30.77
2019-03-31T07:53:54.578Z,31.47
2019-03-31T07:56:25.615Z,32.87
2019-03-31T07:58:56.637Z,34.27
2019-03-31T08:01:27.319Z,36.50
2019-03-31T08:03:57.994Z,37.93
2019-03-31T08:06:28.951Z,33.93
2019-03-31T08:08:59.625Z,38.63
2019-03-31T08:11:30.322Z,38.90
2019-03-31T08:14:01.319Z,38.00
2019-03-31T08:16:32.672Z,41.57
2019-03-31T08:19:03.385Z,40.67
2019-03-31T08:21:34.342Z,37.70
2019-03-31T08:24:06.863Z,40.77
2019-03-31T08:26:37.627Z,41.27
2019-03-31T08:29:08.616Z,40.27
2019-03-31T08:31:39.327Z,45.13
2019-03-31T08:34:10.314Z,39.60
2019-03-31T08:36:41.343Z,40.50
2019-03-31T08:39:12.368Z,42.00
2019-03-31T08:41:43.075Z,44.40
2019-03-31T08:44:13.737Z,42.17
2019-03-31T08:46:44.787Z,41.53
2019-03-31T08:49:16.565Z,43.90
2019-03-31T08:51:47.580Z,41.33
2019-03-31T08:54:18.546Z,40.00
2019-03-31T08:56:49.471Z,43.40
2019-03-31T08:59:20.505Z,40.83
2019-03-31T09:01:51.546Z,39.40
2019-03-31T09:04:22.577Z,41.40
2019-03-31T09:06:53.258Z,39.33
2019-03-31T09:09:23.936Z,37.17
2019-03-31T09:11:54.634Z,37.87
2019-03-31T09:14:25.840Z,38.67
2019-03-31T09:16:56.871Z,39.77
2019-03-31T09:19:27.895Z,37.97
2019-03-31T09:21:58.611Z,40.80
2019-03-31T09:24:29.344Z,39.07
2019-03-31T09:27:00.310Z,42.40
2019-03-31T09:29:31.231Z,40.07
2019-03-31T09:32:01.930Z,39.93
2019-03-31T09:34:32.586Z,38.73
2019-03-31T09:37:03.677Z,39.80
2019-03-31T09:39:34.706Z,40.70
2019-03-31T09:42:05.444Z,41.10
2019-03-31T09:44:36.121Z,42.47
2019-03-31T09:47:06.788Z,40.57
2019-03-31T09:49:37.858Z,40.50
2019-03-31T09:52:08.519Z,41.13
2019-03-31T09:54:39.227Z,42.47
2019-03-31T09:57:10.249Z,42.30
2019-03-31T09:59:40.927Z,41.40
2019-03-31T10:02:11.631Z,41.17
2019-03-31T10:04:42.668Z,46.50
2019-03-31T10:07:13.767Z,50.60
2019-03-31T10:09:45.197Z,42.77
2019-03-31T10:12:16.182Z,44.70
2019-03-31T10:14:47.119Z,44.27
2019-03-31T10:17:17.821Z,43.57
2019-03-31T10:19:48.483Z,41.60
2019-03-31T10:22:19.171Z,43.00
2019-03-31T10:24:50.110Z,42.67
2019-03-31T10:27:20.781Z,46.17
2019-03-31T10:29:51.489Z,46.87
2019-03-31T10:32:22.486Z,48.00
2019-03-31T10:34:53.446Z,49.20
2019-03-31T10:37:25.062Z,50.23
2019-03-31T10:39:55.857Z,48.90
2019-03-31T10:42:26.549Z,49.57
2019-03-31T10:44:57.276Z,50.07
2019-03-31T10:47:28.344Z,50.13
2019-03-31T10:49:59.011Z,51.03
2019-03-31T10:52:30.038Z,51.53
2019-03-31T10:55:01.023Z,56.40
2019-03-31T10:57:31.719Z,49.33
2019-03-31T11:00:02.672Z,49.30
2019-03-31T11:02:34.661Z,50.47
2019-03-31T11:05:06.959Z,49.80
2019-03-31T11:07:37.947Z,51.93
2019-03-31T11:10:10.074Z,48.33
2019-03-31T11:12:41.069Z,49.67
2019-03-31T11:15:12.548Z,46.80
2019-03-31T11:17:43.586Z,50.50
2019-03-31T11:20:14.392Z,48.63
2019-03-31T11:22:48.012Z,50.10
2019-03-31T11:25:22.122Z,48.63
2019-03-31T11:27:56.811Z,49.53
2019-03-31T11:30:27.859Z,49.07
2019-03-31T11:32:58.863Z,47.37
2019-03-31T11:35:29.994Z,44.93
2019-03-31T11:38:00.926Z,46.97
2019-03-31T11:40:33.554Z,48.30
2019-03-31T11:43:04.472Z,47.87
2019-03-31T11:45:35.677Z,48.63
2019-03-31T11:48:07.259Z,49.93
2019-03-31T11:50:38.003Z,49.93
2019-03-31T11:53:08.682Z,52.33
2019-03-31T11:55:41.489Z,51.50
2019-03-31T11:58:12.942Z,45.00
2019-03-31T12:00:45.537Z,50.37
2019-03-31T12:03:16.579Z,52.40
2019-03-31T12:05:47.251Z,52.37
2019-03-31T12:08:18.266Z,53.97
2019-03-31T12:10:49.280Z,53.03
2019-03-31T12:13:20.053Z,54.07
2019-03-31T12:15:50.884Z,53.97
2019-03-31T12:18:21.989Z,58.00
2019-03-31T12:20:53.054Z,52.30
2019-03-31T12:23:24.168Z,52.70
2019-03-31T12:25:55.219Z,49.70
2019-03-31T12:28:26.249Z,51.97
2019-03-31T12:30:57.388Z,50.03
2019-03-31T12:33:28.328Z,50.77
2019-03-31T12:35:59.480Z,47.53
2019-03-31T12:38:30.164Z,45.53
2019-03-31T12:41:00.900Z,43.70
2019-03-31T12:43:32.082Z,46.97
2019-03-31T12:46:03.067Z,44.73
2019-03-31T12:48:33.762Z,39.77
2019-03-31T12:51:04.795Z,72.50
2019-03-31T12:53:35.576Z,80.93
2019-03-31T12:56:08.790Z,145.57
2019-03-31T12:58:39.855Z,35.80
2019-03-31T13:01:10.736Z,34.73
2019-03-31T13:03:41.428Z,28.53
2019-03-31T13:06:12.117Z,27.53
2019-03-31T13:08:43.122Z,23.67
2019-03-31T13:11:14.147Z,20.63
2019-03-31T13:13:45.193Z,27.97
2019-03-31T13:16:16.154Z,26.17
2019-03-31T13:18:46.944Z,25.33
2019-03-31T13:21:17.894Z,24.33
2019-03-31T13:23:48.924Z,23.17
2019-03-31T13:26:19.910Z,24.80
2019-03-31T13:28:50.937Z,26.30
2019-03-31T13:31:21.948Z,24.87
2019-03-31T13:33:52.971Z,25.77
2019-03-31T13:36:23.920Z,37.57
2019-03-31T13:38:54.977Z,31.30
2019-03-31T13:41:26.104Z,28.40
2019-03-31T13:43:57.312Z,27.87
2019-03-31T13:46:28.266Z,30.00
2019-03-31T13:48:59.269Z,30.00
2019-03-31T13:51:30.218Z,31.10
2019-03-31T13:54:01.200Z,29.40
2019-03-31T13:56:32.455Z,32.97
2019-03-31T13:59:03.687Z,31.70
2019-03-31T14:01:34.660Z,30.00
2019-03-31T14:04:05.664Z,31.73
2019-03-31T14:06:36.635Z,31.43
2019-03-31T14:09:10.176Z,30.87
2019-03-31T14:11:41.122Z,33.47
2019-03-31T14:14:11.816Z,32.67
2019-03-31T14:16:42.512Z,32.43
2019-03-31T14:19:14.428Z,30.77
2019-03-31T14:21:45.390Z,30.03
2019-03-31T14:24:16.345Z,30.27
2019-03-31T14:26:47.825Z,31.10
2019-03-31T14:29:18.689Z,32.47
2019-03-31T14:31:51.954Z,34.00
2019-03-31T14:34:22.018Z,31.57
2019-03-31T14:36:53.226Z,34.73
2019-03-31T14:39:23.988Z,32.57
2019-03-31T14:41:54.700Z,28.83
2019-03-31T14:44:25.699Z,30.93
2019-03-31T14:46:56.349Z,29.23
2019-03-31T14:49:27.059Z,29.03
2019-03-31T14:52:01.135Z,28.00
2019-03-31T14:54:30.698Z,29.00
2019-03-31T14:57:01.389Z,30.40
2019-03-31T14:59:32.334Z,34.03
2019-03-31T15:02:03.023Z,31.03
2019-03-31T15:04:33.712Z,30.13
2019-03-31T15:07:04.763Z,32.07
2019-03-31T15:09:35.707Z,29.43
2019-03-31T15:12:06.378Z,31.80
2019-03-31T15:14:37.343Z,31.27
2019-03-31T15:17:08.044Z,29.90
2019-03-31T15:19:38.738Z,30.77
2019-03-31T15:22:09.678Z,28.90
2019-03-31T15:24:40.636Z,31.53
2019-03-31T15:27:11.352Z,28.43
2019-03-31T15:29:42.336Z,29.47
2019-03-31T15:32:13.296Z,31.50
2019-03-31T15:34:43.985Z,27.60
2019-03-31T15:37:14.692Z,27.77
2019-03-31T15:39:46.354Z,28.67
2019-03-31T15:42:17.391Z,28.73
2019-03-31T15:45:22.006Z,29.63
2019-03-31T15:47:52.988Z,26.87
2019-03-31T15:50:23.939Z,28.67
2019-03-31T15:52:54.617Z,28.27
2019-03-31T15:55:25.383Z,27.20
2019-03-31T15:57:56.073Z,22.10
2019-03-31T16:00:26.790Z,24.07
2019-03-31T16:02:57.720Z,22.67
2019-03-31T16:05:28.433Z,23.60
2019-03-31T16:07:59.552Z,21.37
2019-03-31T16:10:31.290Z,18.23
2019-03-31T16:13:02.281Z,17.27
2019-03-31T16:15:32.992Z,17.17
2019-03-31T16:18:04.177Z,16.20
2019-03-31T16:20:34.938Z,14.70
2019-03-31T16:23:05.713Z,14.70
2019-03-31T16:25:40.874Z,25.83
2019-03-31T16:28:11.593Z,14.83
2019-03-31T16:30:42.627Z,15.60
2019-03-31T16:33:13.334Z,13.77
2019-03-31T16:35:45.414Z,14.60
2019-03-31T16:38:16.491Z,14.33
2019-03-31T16:40:47.181Z,14.10
2019-03-31T16:43:18.215Z,13.53
2019-03-31T16:45:49.146Z,11.30
2019-03-31T16:48:20.159Z,11.57
2019-03-31T16:50:51.155Z,12.87
2019-03-31T16:53:21.827Z,11.70
2019-03-31T16:55:52.773Z,13.53
2019-03-31T16:58:23.723Z,10.03
2019-03-31T17:00:54.715Z,12.50
2019-03-31T17:03:25.369Z,12.03
2019-03-31T17:05:56.082Z,10.77
2019-03-31T17:08:26.740Z,10.50
2019-03-31T17:10:57.707Z,10.17
2019-03-31T17:13:28.407Z,9.33
2019-03-31T17:15:59.094Z,9.97
2019-03-31T17:18:31.029Z,9.87
2019-03-31T17:21:01.961Z,10.80
2019-03-31T17:23:32.679Z,10.33
2019-03-31T17:26:03.441Z,9.87
2019-03-31T17:28:34.119Z,11.00
2019-03-31T17:31:05.078Z,9.53
2019-03-31T17:33:36.976Z,9.37
2019-03-31T17:36:07.909Z,9.40
2019-03-31T17:38:38.914Z,7.77
2019-03-31T17:41:09.986Z,9.03
2019-03-31T17:43:40.921Z,7.80
2019-03-31T17:46:11.766Z,9.30
2019-03-31T17:48:42.424Z,7.00
2019-03-31T17:51:13.363Z,7.23
2019-03-31T17:53:44.410Z,8.30
2019-03-31T17:56:15.380Z,6.90
2019-03-31T17:58:46.327Z,7.40
2019-03-31T18:01:17.293Z,7.90
2019-03-31T18:03:48.266Z,17.07
2019-03-31T18:06:18.990Z,18.93
2019-03-31T18:08:49.894Z,12.43
2019-03-31T18:11:20.941Z,7.90
2019-03-31T18:13:52.087Z,8.17
2019-03-31T18:16:22.944Z,7.47
2019-03-31T18:18:53.978Z,7.50
2019-03-31T18:21:27.221Z,6.47
2019-03-31T18:23:57.650Z,6.47
2019-03-31T18:26:28.605Z,76.40
2019-03-31T18:28:59.613Z,78.93
2019-03-31T18:31:30.581Z,19.23
2019-03-31T18:34:01.792Z,7.20
2019-03-31T18:36:36.801Z,7.13
2019-03-31T18:39:07.653Z,6.37
2019-03-31T18:41:38.994Z,7.57
2019-03-31T18:44:10.027Z,7.57
2019-03-31T18:46:41.085Z,7.97
2019-03-31T18:49:12.102Z,8.17
2019-03-31T18:51:42.806Z,11.00
2019-03-31T18:54:15.421Z,8.37
2019-03-31T18:56:48.105Z,8.77
2019-03-31T18:59:20.504Z,9.33
2019-03-31T19:01:59.069Z,8.97
2019-03-31T19:04:32.821Z,10.47
2019-03-31T19:07:22.060Z,9.27
2019-03-31T19:10:01.926Z,9.17
2019-03-31T19:12:47.071Z,10.90
2019-03-31T19:15:31.729Z,9.90
2019-03-31T19:18:02.351Z,8.57
2019-03-31T19:20:33.315Z,11.17
2019-03-31T19:23:11.640Z,8.87
2019-03-31T19:26:00.436Z,8.33
2019-03-31T19:28:38.769Z,7.43
2019-03-31T19:34:18.035Z,10.33
2019-03-31T19:36:56.877Z,8.00
2019-03-31T19:39:45.326Z,10.47
2019-03-31T19:42:31.064Z,10.57
2019-03-31T19:45:06.754Z,9.50
2019-03-31T19:47:57.649Z,10.50
2019-03-31T19:50:46.418Z,9.10
2019-03-31T19:53:20.224Z,11.50
2019-03-31T19:56:06.673Z,10.10
2019-03-31T19:58:36.216Z,9.77
2019-03-31T20:01:07.158Z,10.70
2019-03-31T20:03:45.402Z,9.77
2019-03-31T20:06:18.184Z,11.27
2019-03-31T20:08:54.727Z,10.07
2019-03-31T20:11:38.609Z,9.77
2019-03-31T20:14:23.320Z,10.63
2019-03-31T20:17:04.615Z,9.80
2019-03-31T20:19:35.415Z,9.37
2019-03-31T20:22:24.518Z,9.20
2019-03-31T20:25:13.096Z,10.80
2019-03-31T20:27:54.521Z,10.47
2019-03-31T20:30:38.669Z,9.47
2019-03-31T20:33:10.422Z,10.50
2019-03-31T20:35:43.006Z,10.07
2019-03-31T20:38:24.919Z,14.10
2019-03-31T20:40:57.656Z,13.63
2019-03-31T20:43:33.424Z,15.57
2019-03-31T20:46:04.594Z,13.33
2019-03-31T20:48:36.580Z,10.53
2019-03-31T20:51:07.557Z,13.37
2019-03-31T20:53:39.363Z,12.87
2019-03-31T20:56:10.355Z,13.07
2019-03-31T20:58:41.427Z,12.23
2019-03-31T21:01:12.457Z,14.60
2019-03-31T21:03:43.407Z,16.57
2019-03-31T21:06:14.434Z,13.83
2019-03-31T21:08:45.506Z,15.77
2019-03-31T21:11:16.372Z,14.60
2019-03-31T21:13:47.070Z,14.00
2019-03-31T21:16:18.072Z,13.33
2019-03-31T21:18:49.116Z,12.57
2019-03-31T21:21:19.784Z,12.83
2019-03-31T21:23:50.910Z,12.47
2019-03-31T21:26:22.894Z,10.70
2019-03-31T21:28:53.875Z,12.57
2019-03-31T21:31:24.624Z,10.77
2019-03-31T21:33:55.313Z,11.77
2019-03-31T21:36:26.323Z,11.23
2019-03-31T21:38:56.987Z,9.57
2019-03-31T21:41:27.838Z,11.57
2019-03-31T21:43:58.898Z,12.13
2019-03-31T21:46:31.545Z,11.20
2019-03-31T21:49:02.277Z,12.17
2019-03-31T21:51:33.385Z,11.67
2019-03-31T21:54:04.593Z,9.53
2019-03-31T21:56:35.314Z,9.80
2019-03-31T21:59:06.258Z,12.63
2019-03-31T22:01:37.301Z,11.20
2019-03-31T22:04:08.108Z,9.53
2019-03-31T22:06:39.054Z,10.63
2019-03-31T22:09:11.318Z,11.20
2019-03-31T22:11:42.416Z,11.13
2019-03-31T22:14:13.431Z,10.80
2019-03-31T22:16:44.579Z,8.20
2019-03-31T22:19:15.303Z,10.43
2019-03-31T22:21:45.975Z,11.87
2019-03-31T22:24:16.670Z,11.10
2019-03-31T22:26:47.434Z,9.73
2019-03-31T22:29:18.109Z,9.40
2019-03-31T22:31:49.086Z,9.23
2019-03-31T22:34:20.410Z,9.13
2019-03-31T22:36:52.391Z,8.93
2019-03-31T22:39:23.452Z,10.17
2019-03-31T22:41:54.137Z,12.07
2019-03-31T22:44:24.826Z,10.53
2019-03-31T22:46:55.508Z,9.67
2019-03-31T22:49:26.542Z,8.90
2019-03-31T22:51:57.342Z,7.73
2019-03-31T22:54:28.042Z,11.03
2019-03-31T22:56:58.699Z,11.03
2019-03-31T22:59:29.392Z,8.57
2019-03-31T23:02:00.427Z,9.80
2019-03-31T23:04:31.481Z,10.93
2019-03-31T23:07:02.505Z,12.83
2019-03-31T23:09:34.482Z,8.87
2019-03-31T23:12:05.437Z,10.30
2019-03-31T23:14:36.342Z,8.33
2019-03-31T23:17:07.024Z,9.37
2019-03-31T23:19:37.737Z,10.70
2019-03-31T23:22:08.394Z,9.93
2019-03-31T23:24:39.365Z,8.63
2019-03-31T23:27:10.420Z,10.27
2019-03-31T23:29:41.352Z,9.80
2019-03-31T23:32:12.066Z,8.90
2019-03-31T23:34:44.397Z,9.83
2019-03-31T23:37:15.423Z,7.77
2019-03-31T23:39:46.076Z,8.37
2019-03-31T23:42:17.153Z,6.50
2019-03-31T23:44:47.888Z,9.33
2019-03-31T23:47:18.578Z,8.33
2019-03-31T23:49:49.260Z,8.57
2019-03-31T23:52:20.192Z,7.00
2019-03-31T23:54:50.877Z,9.00
2019-03-31T23:57:23.506Z,12.53
2019-03-31T23:59:54.561Z,10.03
